Time;durP1;ratioP1;P1;durP2;ratioP2;P2;SDS_P1;SDS_P2;PMS_P1;PMS_P2;Temp;Humidity;BMP_temperature;BMP_pressure;BME280_temperature;BME280_humidity;BME280_pressure;Samples;Min_cycle;Max_cycle;Signal;HPM_P1;HPM_P2
2020/12/27 00:02:17;;;;;;;21.50;20.57;;;5.00;1.00;;;;;;5074929;28;20168;-71
2020/12/27 00:04:42;;;;;;;20.50;19.50;;;5.00;1.00;;;;;;5073550;28;20169;-71
2020/12/27 00:07:10;;;;;;;25.20;24.10;;;5.00;1.00;;;;;;5074806;28;20185;-71
2020/12/27 00:09:44;;;;;;;23.77;22.65;;;5.00;1.00;;;;;;5074925;28;20173;-71
2020/12/27 00:12:13;;;;;;;22.70;21.70;;;4.90;1.00;;;;;;5074575;28;20260;-71
2020/12/27 00:14:39;;;;;;;29.50;28.50;;;4.90;1.00;;;;;;5074407;28;20254;-71
2020/12/27 00:17:07;;;;;;;28.63;27.27;;;5.00;1.00;;;;;;5074262;28;20237;-71
2020/12/27 00:19:32;;;;;;;30.20;29.13;;;5.00;1.00;;;;;;5074260;28;20280;-71
2020/12/27 00:21:58;;;;;;;25.13;24.13;;;5.00;1.00;;;;;;5074439;28;20244;-71
2020/12/27 00:24:23;;;;;;;20.77;19.87;;;5.00;1.00;;;;;;5074821;28;20260;-71
2020/12/27 00:26:50;;;;;;;22.10;21.20;;;5.00;1.00;;;;;;5073814;28;20185;-71
2020/12/27 00:29:15;;;;;;;31.10;29.90;;;5.00;1.00;;;;;;5072754;28;20184;-71
2020/12/27 00:31:41;;;;;;;21.93;21.03;;;5.00;1.00;;;;;;5074392;28;20173;-71
2020/12/27 00:34:07;;;;;;;30.03;28.63;;;5.10;1.00;;;;;;5074025;28;20201;-71
2020/12/27 00:36:33;;;;;;;23.93;22.83;;;5.00;1.00;;;;;;5073851;28;20460;-71
2020/12/27 00:38:58;;;;;;;27.00;26.10;;;5.10;1.00;;;;;;5074516;28;20216;-70
2020/12/27 00:41:25;;;;;;;25.90;24.90;;;5.10;1.00;;;;;;5074552;28;20169;-71
2020/12/27 00:43:52;;;;;;;39.45;37.95;;;5.10;1.00;;;;;;5073848;28;20162;-71
2020/12/27 00:46:19;;;;;;;29.35;28.10;;;5.10;1.00;;;;;;5074100;28;20177;-71
2020/12/27 00:48:45;;;;;;;31.10;29.92;;;5.10;1.00;;;;;;5074136;28;20198;-71
2020/12/27 00:51:11;;;;;;;28.67;26.83;;;5.10;1.00;;;;;;5074326;28;20177;-71
2020/12/27 00:53:37;;;;;;;26.70;25.60;;;5.10;1.00;;;;;;5074261;28;20169;-71
2020/12/27 00:56:03;;;;;;;35.25;34.05;;;5.10;1.00;;;;;;5074378;28;20182;-71
2020/12/27 00:58:31;;;;;;;27.10;26.10;;;5.20;1.00;;;;;;5073496;28;20209;-71
2020/12/27 01:00:57;;;;;;;28.58;27.63;;;5.10;1.00;;;;;;5073989;28;20189;-71
2020/12/27 01:03:23;;;;;;;27.00;25.73;;;5.10;1.00;;;;;;5073886;28;20196;-71
2020/12/27 01:05:49;;;;;;;25.48;24.58;;;5.10;1.00;;;;;;5073816;28;20161;-70
2020/12/27 01:08:16;;;;;;;21.90;21.10;;;5.20;1.00;;;;;;5072237;28;20195;-70
2020/12/27 01:10:42;;;;;;;19.98;18.98;;;5.20;1.00;;;;;;5073611;28;20169;-71
2020/12/27 01:13:07;;;;;;;19.97;19.17;;;5.20;1.00;;;;;;5073484;28;20170;-71
2020/12/27 01:15:33;;;;;;;21.97;21.17;;;5.30;1.00;;;;;;5073743;28;20161;-71
2020/12/27 01:17:59;;;;;;;24.03;23.03;;;5.30;1.00;;;;;;5073965;28;20208;-71
2020/12/27 01:20:24;;;;;;;27.27;26.23;;;5.20;1.00;;;;;;5073385;28;20224;-71
2020/12/27 01:22:50;;;;;;;30.67;29.47;;;5.20;1.00;;;;;;5073444;28;20165;-71
2020/12/27 01:25:15;;;;;;;25.00;24.20;;;5.20;1.00;;;;;;5073407;28;20169;-71
2020/12/27 01:27:42;;;;;;;18.50;17.80;;;5.20;1.00;;;;;;5073763;28;20605;-71
2020/12/27 01:30:07;;;;;;;23.27;22.38;;;5.20;1.00;;;;;;5073551;28;20685;-71
2020/12/27 01:32:33;;;;;;;24.13;23.23;;;5.20;1.00;;;;;;5073250;28;20212;-71
2020/12/27 01:34:59;;;;;;;21.47;20.63;;;5.30;1.00;;;;;;5073850;28;20267;-70
2020/12/27 01:37:24;;;;;;;24.10;23.30;;;5.20;1.00;;;;;;5073834;28;20193;-71
2020/12/27 01:39:50;;;;;;;24.07;23.20;;;5.20;1.00;;;;;;5074838;28;20204;-71
2020/12/27 01:42:16;;;;;;;24.20;23.40;;;5.20;1.00;;;;;;5077135;28;20177;-71
2020/12/27 01:44:41;;;;;;;24.47;23.60;;;5.10;1.00;;;;;;5077547;28;20248;-71
2020/12/27 01:47:19;;;;;;;22.47;21.53;;;5.10;1.00;;;;;;5077314;28;20655;-71
2020/12/27 01:49:45;;;;;;;19.55;18.75;;;5.10;1.00;;;;;;5077828;28;20600;-71
2020/12/27 01:52:11;;;;;;;20.65;19.85;;;5.10;1.00;;;;;;5077562;28;20169;-71
2020/12/27 01:54:37;;;;;;;20.33;19.60;;;5.00;1.00;;;;;;5077138;28;20514;-70
2020/12/27 01:57:11;;;;;;;23.83;22.83;;;5.10;1.00;;;;;;5077241;28;20185;-71
2020/12/27 01:59:37;;;;;;;22.60;21.85;;;5.00;1.00;;;;;;5077296;28;20185;-71
2020/12/27 02:02:03;;;;;;;29.58;28.48;;;5.10;1.00;;;;;;5077237;28;20527;-71
2020/12/27 02:04:31;;;;;;;27.08;26.17;;;5.10;1.00;;;;;;5076214;28;20219;-72
2020/12/27 02:06:58;;;;;;;20.00;19.40;;;5.00;1.00;;;;;;5076835;28;20244;-71
2020/12/27 02:09:23;;;;;;;25.27;24.40;;;5.10;1.00;;;;;;5076903;28;20196;-71
2020/12/27 02:12:02;;;;;;;28.17;27.00;;;5.10;1.00;;;;;;5076775;28;20600;-71
2020/12/27 02:14:27;;;;;;;26.08;25.17;;;5.10;1.00;;;;;;5077082;28;20252;-71
2020/12/27 02:16:53;;;;;;;29.60;28.60;;;5.10;1.00;;;;;;5076982;28;20279;-70
2020/12/27 02:19:19;;;;;;;27.33;26.37;;;5.00;1.00;;;;;;5076318;28;20209;-71
2020/12/27 02:21:45;;;;;;;24.08;23.25;;;5.10;1.00;;;;;;5076932;28;20166;-71
2020/12/27 02:24:11;;;;;;;27.57;26.47;;;5.10;1.00;;;;;;5076679;28;20260;-71
2020/12/27 02:26:36;;;;;;;32.60;31.40;;;5.10;1.00;;;;;;5075425;28;20901;-71
2020/12/27 02:29:02;;;;;;;32.80;31.63;;;5.20;1.00;;;;;;5076900;28;20252;-71
2020/12/27 02:31:28;;;;;;;31.90;30.80;;;5.10;1.00;;;;;;5076965;28;20201;-71
2020/12/27 02:33:54;;;;;;;27.47;26.57;;;5.10;1.00;;;;;;5076145;28;20587;-71
2020/12/27 02:36:20;;;;;;;26.55;25.75;;;5.10;1.00;;;;;;5076525;28;20169;-71
2020/12/27 02:38:46;;;;;;;30.70;29.77;;;5.10;1.00;;;;;;5077021;28;20558;-71
2020/12/27 02:41:17;;;;;;;21.40;20.27;;;5.00;1.00;;;;;;5076273;28;20494;-71
2020/12/27 02:43:42;;;;;;;24.50;23.35;;;5.00;1.00;;;;;;5076542;28;20395;-70
2020/12/27 02:46:19;;;;;;;26.57;25.57;;;5.10;1.00;;;;;;5076708;28;20215;-71
2020/12/27 02:48:44;;;;;;;27.15;26.25;;;5.00;1.00;;;;;;5076144;28;20527;-71
2020/12/27 02:51:11;;;;;;;29.20;28.10;;;5.00;1.00;;;;;;5075625;28;20303;-71
2020/12/27 02:53:37;;;;;;;24.60;23.73;;;5.00;1.00;;;;;;5076122;28;20169;-71
2020/12/27 02:56:03;;;;;;;20.87;20.17;;;5.00;1.00;;;;;;5076254;28;20180;-71
2020/12/27 02:58:28;;;;;;;28.53;27.30;;;5.00;1.00;;;;;;5076312;28;20197;-70
2020/12/27 03:00:54;;;;;;;24.53;23.57;;;5.00;1.00;;;;;;5076422;28;20654;-71
2020/12/27 03:03:19;;;;;;;22.53;21.73;;;5.00;1.00;;;;;;5075749;28;20555;-71
2020/12/27 03:05:45;;;;;;;26.57;25.77;;;5.00;1.00;;;;;;5075955;28;20620;-71
2020/12/27 03:08:10;;;;;;;22.87;22.00;;;5.00;1.00;;;;;;5075990;28;20651;-71
2020/12/27 03:10:36;;;;;;;27.93;27.03;;;5.00;1.00;;;;;;5076091;28;20642;-71
2020/12/27 03:13:01;;;;;;;22.77;21.80;;;4.90;1.00;;;;;;5075488;28;20227;-71
2020/12/27 03:15:27;;;;;;;25.87;24.90;;;4.80;1.00;;;;;;5076174;28;20178;-71
2020/12/27 03:17:53;;;;;;;27.77;26.77;;;4.80;1.00;;;;;;5075708;28;20220;-70
2020/12/27 03:20:19;;;;;;;23.77;22.98;;;4.70;1.00;;;;;;5075455;28;20296;-71
2020/12/27 03:22:45;;;;;;;32.37;31.17;;;4.70;1.00;;;;;;5075223;28;20248;-70
2020/12/27 03:25:10;;;;;;;31.10;30.10;;;4.70;1.00;;;;;;5075784;28;20498;-71
2020/12/27 03:27:37;;;;;;;25.63;24.83;;;4.60;1.00;;;;;;5075980;28;20193;-71
2020/12/27 03:30:04;;;;;;;32.78;31.67;;;4.60;1.00;;;;;;5075941;28;20495;-71
2020/12/27 03:32:30;;;;;;;32.30;31.02;;;4.60;1.00;;;;;;5075162;28;20181;-71
2020/12/27 03:34:56;;;;;;;35.43;33.93;;;4.60;1.00;;;;;;5075507;28;20177;-71
2020/12/27 03:37:21;;;;;;;29.23;28.20;;;4.50;1.00;;;;;;5075401;28;20272;-71
2020/12/27 03:39:47;;;;;;;32.47;31.37;;;4.60;1.00;;;;;;5075005;28;20667;-71
2020/12/27 03:42:12;;;;;;;33.83;32.73;;;4.60;1.00;;;;;;5075309;28;20628;-71
2020/12/27 03:44:38;;;;;;;36.90;35.70;;;4.60;1.00;;;;;;5075318;28;20173;-71
2020/12/27 03:47:03;;;;;;;28.00;27.10;;;4.60;1.00;;;;;;5074974;28;20254;-71
2020/12/27 03:49:29;;;;;;;34.20;33.00;;;4.50;1.00;;;;;;5075220;28;20177;-71
2020/12/27 03:51:54;;;;;;;29.30;28.30;;;4.50;1.00;;;;;;5075001;28;20177;-71
2020/12/27 03:54:20;;;;;;;26.97;25.77;;;4.50;1.00;;;;;;5075099;28;20204;-71
2020/12/27 03:56:45;;;;;;;26.80;25.90;;;4.50;1.00;;;;;;5075105;28;20193;-71
2020/12/27 03:59:11;;;;;;;32.87;31.83;;;4.50;1.00;;;;;;5075179;28;20234;-71
2020/12/27 04:01:36;;;;;;;34.00;32.80;;;4.50;1.00;;;;;;5074374;28;20166;-70
2020/12/27 04:04:02;;;;;;;32.70;31.60;;;4.50;1.00;;;;;;5072917;28;20226;-71
2020/12/27 04:06:27;;;;;;;30.87;29.97;;;4.50;1.00;;;;;;5074717;28;20173;-71
2020/12/27 04:08:53;;;;;;;40.13;38.83;;;4.50;1.00;;;;;;5074911;28;20179;-70
2020/12/27 04:11:19;;;;;;;30.50;29.40;;;4.50;1.00;;;;;;5074681;28;20259;-71
2020/12/27 04:13:44;;;;;;;31.40;30.40;;;4.40;1.00;;;;;;5074186;28;20211;-71
2020/12/27 04:16:10;;;;;;;40.77;39.57;;;4.40;1.00;;;;;;5074254;28;20165;-70
2020/12/27 04:18:35;;;;;;;32.07;31.07;;;4.40;1.00;;;;;;5074363;28;20211;-71
2020/12/27 04:21:01;;;;;;;38.37;37.27;;;4.40;1.00;;;;;;5074505;28;20173;-71
2020/12/27 04:23:26;;;;;;;38.63;37.37;;;4.40;1.00;;;;;;5074661;28;20176;-71
2020/12/27 04:25:52;;;;;;;31.30;30.37;;;4.50;1.00;;;;;;5074731;28;20161;-70
2020/12/27 04:28:17;;;;;;;32.60;31.60;;;4.40;1.00;;;;;;5074070;28;20192;-70
2020/12/27 04:30:44;;;;;;;25.10;24.20;;;4.40;1.00;;;;;;5074130;28;20177;-70
2020/12/27 04:33:09;;;;;;;38.65;37.47;;;4.40;1.00;;;;;;5074052;28;20176;-71
2020/12/27 04:35:35;;;;;;;32.63;31.63;;;4.40;1.00;;;;;;5074297;28;20165;-71
2020/12/27 04:38:00;;;;;;;27.60;26.70;;;4.30;1.00;;;;;;5072432;28;20231;-70
2020/12/27 04:40:26;;;;;;;22.20;21.50;;;4.40;1.00;;;;;;5074239;28;20201;-71
2020/12/27 04:42:52;;;;;;;34.40;33.40;;;4.40;1.00;;;;;;5073998;28;20177;-71
2020/12/27 04:45:19;;;;;;;31.63;30.52;;;4.40;1.00;;;;;;5073897;28;20690;-70
2020/12/27 04:47:47;;;;;;;29.10;28.20;;;4.40;1.00;;;;;;5073943;28;20192;-71
2020/12/27 04:50:13;;;;;;;30.73;29.75;;;4.50;1.00;;;;;;5074114;28;20207;-71
2020/12/27 04:52:39;;;;;;;26.95;26.08;;;4.50;1.00;;;;;;5073805;28;20173;-71
2020/12/27 04:55:05;;;;;;;30.67;29.77;;;4.60;1.00;;;;;;5074290;28;20549;-70
2020/12/27 04:57:34;;;;;;;30.97;29.97;;;4.50;1.00;;;;;;5073593;28;20435;-71
2020/12/27 05:00:04;;;;;;;24.67;23.88;;;4.60;1.00;;;;;;5073678;28;20458;-70
2020/12/27 05:02:30;;;;;;;32.80;31.80;;;4.60;1.00;;;;;;5073600;28;20245;-71
2020/12/27 05:04:55;;;;;;;36.90;35.80;;;4.50;1.00;;;;;;5073935;28;20192;-70
2020/12/27 05:07:21;;;;;;;27.30;26.50;;;4.60;1.00;;;;;;5073654;28;20647;-70
2020/12/27 05:09:51;;;;;;;25.43;24.63;;;4.60;1.00;;;;;;5074292;28;20180;-70
2020/12/27 05:12:17;;;;;;;28.05;27.15;;;4.60;1.00;;;;;;5073451;28;20172;-71
2020/12/27 05:14:46;;;;;;;33.73;32.73;;;4.60;1.00;;;;;;5073502;28;20182;-70
2020/12/27 05:17:14;;;;;;;32.22;31.23;;;4.60;1.00;;;;;;5072414;28;20435;-70
2020/12/27 05:19:40;;;;;;;35.28;34.25;;;4.60;1.00;;;;;;5073447;28;20209;-70
2020/12/27 05:22:11;;;;;;;33.60;32.60;;;4.60;1.00;;;;;;5073654;28;20178;-71
2020/12/27 05:24:38;;;;;;;39.40;38.30;;;4.70;1.00;;;;;;5074061;28;20161;-71
2020/12/27 05:27:15;;;;;;;38.50;37.33;;;4.60;1.00;;;;;;5073464;28;20192;-70
2020/12/27 05:29:42;;;;;;;23.98;22.98;;;4.70;1.00;;;;;;5073809;28;20222;-70
2020/12/27 05:32:09;;;;;;;33.10;32.10;;;4.70;1.00;;;;;;5072222;28;20183;-70
2020/12/27 05:34:36;;;;;;;34.90;33.80;;;4.70;1.00;;;;;;5073688;28;20188;-70
2020/12/27 05:37:04;;;;;;;29.80;28.90;;;4.70;1.00;;;;;;5073913;28;20193;-70
2020/12/27 05:39:30;;;;;;;35.15;34.10;;;4.70;1.00;;;;;;5073477;28;20200;-70
2020/12/27 05:42:06;;;;;;;38.38;37.17;;;4.80;1.00;;;;;;5073593;28;20165;-71
2020/12/27 05:44:35;;;;;;;37.20;36.00;;;4.80;1.00;;;;;;5073868;28;20519;-70
2020/12/27 05:47:01;;;;;;;34.15;33.13;;;4.90;1.00;;;;;;5073471;28;20212;-70
2020/12/27 05:49:27;;;;;;;27.75;26.95;;;4.80;1.00;;;;;;5073807;28;20694;-70
2020/12/27 05:51:55;;;;;;;25.63;24.87;;;4.80;1.00;;;;;;5073337;28;20209;-70
2020/12/27 05:54:30;;;;;;;31.05;30.15;;;4.80;1.00;;;;;;5073089;28;20173;-70
2020/12/27 05:56:57;;;;;;;32.30;31.30;;;4.90;1.00;;;;;;5073226;28;20193;-70
2020/12/27 05:59:27;;;;;;;40.60;39.40;;;4.90;1.00;;;;;;5073505;28;20204;-70
2020/12/27 06:01:55;;;;;;;31.50;30.45;;;4.90;1.00;;;;;;5073696;28;20165;-71
2020/12/27 06:04:58;;;;;;;38.22;37.13;;;5.00;1.00;;;;;;5071418;28;20179;-70
2020/12/27 06:07:41;;;;;;;35.97;33.78;;;4.90;1.00;;;;;;5072921;28;20177;-70
2020/12/27 06:10:21;;;;;;;28.65;27.77;;;5.00;1.00;;;;;;5073184;28;20181;-70
2020/12/27 06:13:27;;;;;;;39.95;38.28;;;5.00;1.00;;;;;;5073213;28;20169;-71
2020/12/27 06:15:57;;;;;;;37.72;36.60;;;5.00;1.00;;;;;;5073322;28;20189;-70
2020/12/27 06:18:33;;;;;;;31.70;30.60;;;5.10;1.00;;;;;;5073484;28;20548;-70
2020/12/27 06:21:09;;;;;;;31.08;30.10;;;5.10;1.00;;;;;;5072870;28;20180;-71
2020/12/27 06:23:39;;;;;;;30.17;29.17;;;5.10;1.00;;;;;;5072680;28;20252;-68
2020/12/27 06:26:06;;;;;;;28.95;28.15;;;5.10;1.00;;;;;;5074761;28;20184;-68
2020/12/27 06:28:33;;;;;;;25.70;24.80;;;5.10;1.00;;;;;;5076837;28;20527;-68
2020/12/27 06:31:10;;;;;;;16.95;16.42;;;5.20;1.00;;;;;;5076982;28;20165;-68
2020/12/27 06:33:41;;;;;;;38.92;37.50;;;5.20;1.00;;;;;;5076056;28;20576;-69
2020/12/27 06:36:26;;;;;;;41.58;40.38;;;5.20;1.00;;;;;;5076729;28;20261;-68
2020/12/27 06:38:52;;;;;;;40.30;39.10;;;5.20;1.00;;;;;;5076480;28;20284;-68
2020/12/27 06:41:18;;;;;;;27.93;27.13;;;5.20;1.00;;;;;;5075491;28;20268;-69
2020/12/27 06:43:45;;;;;;;29.33;28.50;;;5.30;1.00;;;;;;5075926;28;20165;-69
2020/12/27 06:46:24;;;;;;;43.78;42.17;;;5.30;1.00;;;;;;5076173;28;20467;-68
2020/12/27 06:48:50;;;;;;;48.05;46.58;;;5.30;1.00;;;;;;5076553;28;20616;-69
2020/12/27 06:51:41;;;;;;;55.30;53.60;;;5.30;1.00;;;;;;5076524;28;20169;-69
2020/12/27 06:54:07;;;;;;;49.25;47.75;;;5.30;1.00;;;;;;5075750;28;20537;-69
2020/12/27 06:56:44;;;;;;;47.33;45.92;;;5.10;1.00;;;;;;5076019;28;20177;-69
2020/12/27 06:59:10;;;;;;;45.90;44.60;;;5.10;1.00;;;;;;5076292;28;20208;-69
2020/12/27 07:01:36;;;;;;;40.13;38.93;;;4.90;1.00;;;;;;5076170;28;20185;-69
2020/12/27 07:04:16;;;;;;;38.70;37.53;;;4.80;1.00;;;;;;5076186;28;20165;-69
2020/12/27 07:06:49;;;;;;;32.80;31.80;;;4.70;1.00;;;;;;5076340;28;20201;-69
2020/12/27 07:09:22;;;;;;;54.58;52.97;;;4.70;1.00;;;;;;5074551;28;20177;-69
2020/12/27 07:12:03;;;;;;;46.15;44.70;;;4.60;1.00;;;;;;5076105;28;20173;-68
2020/12/27 07:14:29;;;;;;;34.95;33.85;;;4.60;1.00;;;;;;5075992;28;20169;-69
2020/12/27 07:16:56;;;;;;;40.40;39.20;;;4.60;1.00;;;;;;5076186;28;20248;-69
2020/12/27 07:19:28;;;;;;;33.92;32.90;;;4.60;1.00;;;;;;5075310;28;20205;-69
2020/12/27 07:21:57;;;;;;;22.40;21.70;;;4.60;1.00;;;;;;5075837;28;20180;-68
2020/12/27 07:24:25;;;;;;;31.55;30.55;;;4.70;1.00;;;;;;5075565;28;20192;-69
2020/12/27 07:26:51;;;;;;;38.40;37.30;;;4.80;1.00;;;;;;5075582;28;20238;-69
2020/12/27 07:29:20;;;;;;;37.47;35.83;;;4.80;1.00;;;;;;5075741;28;20177;-69
2020/12/27 07:31:47;;;;;;;38.67;37.47;;;4.70;1.00;;;;;;5075958;28;20583;-69
2020/12/27 07:34:14;;;;;;;28.73;27.83;;;4.70;1.00;;;;;;5075250;28;20169;-69
2020/12/27 07:36:40;;;;;;;40.13;38.92;;;4.70;1.00;;;;;;5075285;28;20203;-69
2020/12/27 07:39:10;;;;;;;35.80;34.70;;;4.70;1.00;;;;;;5075548;28;20201;-69
2020/12/27 07:41:40;;;;;;;33.83;32.83;;;4.70;1.00;;;;;;5075324;28;20234;-69
2020/12/27 07:44:16;;;;;;;36.70;35.60;;;4.70;1.00;;;;;;5074738;28;20169;-69
2020/12/27 07:46:43;;;;;;;29.33;28.52;;;4.70;1.00;;;;;;5075189;28;20169;-69
2020/12/27 07:49:09;;;;;;;40.30;39.00;;;4.70;1.00;;;;;;5075336;28;20531;-69
2020/12/27 07:51:35;;;;;;;35.40;34.22;;;4.70;1.00;;;;;;5075235;28;20251;-69
2020/12/27 07:54:02;;;;;;;34.40;33.40;;;4.80;1.00;;;;;;5075110;28;20582;-69
2020/12/27 07:56:29;;;;;;;34.70;33.70;;;4.80;1.00;;;;;;5075088;28;20262;-69
2020/12/27 07:58:59;;;;;;;52.10;50.58;;;4.80;1.00;;;;;;5075390;28;20193;-69
2020/12/27 08:01:31;;;;;;;49.38;47.88;;;4.90;1.00;;;;;;5075020;28;20171;-69
2020/12/27 08:03:59;;;;;;;36.55;35.30;;;5.00;1.00;;;;;;5074821;28;20181;-69
2020/12/27 08:06:27;;;;;;;43.85;42.55;;;5.00;1.00;;;;;;5074533;28;20169;-69
2020/12/27 08:09:10;;;;;;;39.65;38.30;;;5.10;1.00;;;;;;5075136;28;20191;-68
2020/12/27 08:11:38;;;;;;;52.08;50.28;;;5.20;1.00;;;;;;5074553;28;20638;-69
2020/12/27 08:14:06;;;;;;;45.75;44.25;;;5.20;1.00;;;;;;5074527;28;20228;-69
2020/12/27 08:16:33;;;;;;;33.97;32.88;;;5.20;1.00;;;;;;5074577;28;20183;-69
2020/12/27 08:19:06;;;;;;;44.25;42.75;;;5.20;1.00;;;;;;5074763;28;20532;-70
2020/12/27 08:21:32;;;;;;;39.92;38.53;;;5.30;1.00;;;;;;5074709;28;20192;-69
2020/12/27 08:24:05;;;;;;;38.70;36.70;;;5.30;1.00;;;;;;5074075;28;20196;-69
2020/12/27 08:26:34;;;;;;;42.45;41.25;;;5.30;1.00;;;;;;5074380;28;20612;-69
2020/12/27 08:29:18;;;;;;;37.90;36.78;;;5.30;1.00;;;;;;5074509;28;20227;-69
2020/12/27 08:31:46;;;;;;;37.42;36.25;;;5.40;1.00;;;;;;5074726;28;20173;-69
2020/12/27 08:34:13;;;;;;;33.63;32.63;;;5.40;1.00;;;;;;5073539;28;20680;-69
2020/12/27 08:36:41;;;;;;;37.67;36.50;;;5.40;1.00;;;;;;5073948;28;20216;-69
2020/12/27 08:39:31;;;;;;;32.58;31.58;;;5.40;1.00;;;;;;5074317;28;20197;-69
2020/12/27 08:42:06;;;;;;;40.75;39.55;;;5.50;1.00;;;;;;5074304;28;20631;-69
2020/12/27 08:44:37;;;;;;;34.47;33.47;;;5.50;1.00;;;;;;5074350;28;20219;-69
2020/12/27 08:47:04;;;;;;;35.13;33.97;;;5.50;1.00;;;;;;5073842;28;20530;-69
2020/12/27 08:49:39;;;;;;;36.72;35.53;;;5.60;1.00;;;;;;5073578;28;20169;-69
2020/12/27 08:52:14;;;;;;;34.40;33.40;;;5.60;1.00;;;;;;5074288;28;20176;-69
2020/12/27 08:54:40;;;;;;;32.45;31.55;;;5.60;1.00;;;;;;5074160;28;20566;-69
2020/12/27 08:57:07;;;;;;;36.80;35.10;;;5.60;1.00;;;;;;5059290;28;20202;-69
2020/12/27 08:59:33;;;;;;;35.95;34.85;;;5.60;1.00;;;;;;5051533;28;20209;-70
2020/12/27 09:02:09;;;;;;;29.50;28.70;;;5.60;1.00;;;;;;5051358;28;20162;-69
2020/12/27 09:04:34;;;;;;;31.48;30.58;;;5.70;1.00;;;;;;5049701;28;20181;-69
2020/12/27 09:07:00;;;;;;;35.50;34.40;;;5.60;1.00;;;;;;5051320;28;20251;-69
2020/12/27 09:09:25;;;;;;;36.90;35.80;;;5.60;1.00;;;;;;5051322;28;20173;-69
2020/12/27 09:11:51;;;;;;;45.10;43.70;;;5.70;1.00;;;;;;5049862;28;20176;-69
2020/12/27 09:14:34;;;;;;;42.80;41.40;;;5.70;1.00;;;;;;5050988;28;20243;-68
2020/12/27 09:17:06;;;;;;;42.80;41.50;;;5.70;1.00;;;;;;5053604;28;20212;-69
2020/12/27 09:19:35;;;;;;;41.78;40.58;;;5.70;1.00;;;;;;5059498;28;20193;-69
2020/12/27 09:22:04;;;;;;;45.28;43.97;;;5.70;1.00;;;;;;5059026;28;20165;-69
2020/12/27 09:24:29;;;;;;;37.40;36.20;;;5.80;1.00;;;;;;5065225;28;20538;-69
2020/12/27 09:27:11;;;;;;;35.50;34.40;;;5.80;1.00;;;;;;5071077;28;20188;-69
2020/12/27 09:29:37;;;;;;;42.85;41.33;;;5.80;1.00;;;;;;5071099;28;20264;-69
2020/12/27 09:32:11;;;;;;;38.35;37.25;;;5.80;1.00;;;;;;5071154;28;20173;-68
2020/12/27 09:34:37;;;;;;;42.45;41.20;;;5.80;1.00;;;;;;5070849;28;20173;-68
2020/12/27 09:37:17;;;;;;;42.20;40.90;;;5.80;1.00;;;;;;5071057;28;20301;-68
2020/12/27 09:39:53;;;;;;;31.23;30.13;;;5.80;1.00;;;;;;5071058;28;21266;-69
2020/12/27 09:42:24;;;;;;;22.75;22.13;;;5.80;1.00;;;;;;5070950;28;20184;-69
2020/12/27 09:44:50;;;;;;;31.27;29.95;;;5.80;1.00;;;;;;5069817;28;20708;-69
2020/12/27 09:47:27;;;;;;;41.20;40.00;;;5.80;1.00;;;;;;5064871;28;20201;-69
2020/12/27 09:50:00;;;;;;;33.40;32.40;;;5.90;1.00;;;;;;5070878;28;20195;-68
2020/12/27 09:52:26;;;;;;;31.25;30.13;;;5.90;1.00;;;;;;5070818;28;20180;-69
2020/12/27 09:54:51;;;;;;;33.10;31.90;;;5.90;1.00;;;;;;5070877;28;20169;-69
2020/12/27 09:57:19;;;;;;;33.30;32.30;;;5.90;1.00;;;;;;5070759;28;20201;-69
2020/12/27 09:59:49;;;;;;;31.60;30.60;;;5.90;1.00;;;;;;5070791;28;20192;-69
2020/12/27 10:02:16;;;;;;;32.45;31.52;;;5.90;1.00;;;;;;5073279;28;20555;-69
2020/12/27 10:04:42;;;;;;;35.38;34.30;;;5.90;1.00;;;;;;5074589;28;20165;-68
2020/12/27 10:07:08;;;;;;;27.02;26.23;;;5.90;1.00;;;;;;5074667;28;20196;-69
2020/12/27 10:09:34;;;;;;;15.67;15.17;;;6.00;1.00;;;;;;5072750;28;20191;-69
2020/12/27 10:12:00;;;;;;;18.17;17.40;;;5.90;1.00;;;;;;5074541;28;20188;-69
2020/12/27 10:14:26;;;;;;;18.93;18.33;;;6.00;1.50;;;;;;5074228;28;20255;-69
2020/12/27 10:16:52;;;;;;;19.07;18.30;;;6.00;2.80;;;;;;5073080;28;20548;-69
2020/12/27 10:19:17;;;;;;;20.57;19.97;;;6.00;3.20;;;;;;5074429;28;20204;-69
2020/12/27 10:21:47;;;;;;;17.90;17.40;;;6.00;2.60;;;;;;5073380;28;20509;-70
2020/12/27 10:24:13;;;;;;;25.35;24.65;;;6.00;2.70;;;;;;5074019;28;20166;-69
2020/12/27 10:26:39;;;;;;;26.73;25.80;;;6.00;3.60;;;;;;5072968;28;20184;-69
2020/12/27 10:29:05;;;;;;;23.40;22.70;;;6.00;4.20;;;;;;5074239;28;20165;-69
2020/12/27 10:31:30;;;;;;;29.92;28.92;;;6.00;4.50;;;;;;5074273;28;20180;-69
2020/12/27 10:33:57;;;;;;;27.43;26.63;;;6.10;5.70;;;;;;5074025;28;20181;-69
2020/12/27 10:36:23;;;;;;;26.60;25.80;;;6.10;5.90;;;;;;5074046;28;20215;-70
2020/12/27 10:38:48;;;;;;;38.60;37.50;;;6.00;5.30;;;;;;5070456;28;20620;-69
2020/12/27 10:41:14;;;;;;;35.30;34.20;;;6.00;6.00;;;;;;5062465;28;20488;-69
2020/12/27 10:43:39;;;;;;;30.27;29.37;;;6.10;8.20;;;;;;5062034;28;20667;-69
2020/12/27 10:46:05;;;;;;;31.83;30.77;;;6.00;8.60;;;;;;5062304;28;20176;-69
2020/12/27 10:48:33;;;;;;;32.07;31.07;;;6.00;8.30;;;;;;5063478;28;20188;-69
2020/12/27 10:50:59;;;;;;;26.70;25.88;;;6.00;9.40;;;;;;5061763;28;20165;-68
2020/12/27 10:53:25;;;;;;;28.75;27.88;;;6.00;10.80;;;;;;5062128;28;20173;-68
2020/12/27 10:55:50;;;;;;;23.70;23.00;;;6.00;10.90;;;;;;5063232;28;20261;-68
2020/12/27 10:58:16;;;;;;;27.53;26.73;;;6.10;10.10;;;;;;5061521;28;20185;-68
2020/12/27 11:00:45;;;;;;;29.90;28.90;;;6.00;11.40;;;;;;5060030;28;20688;-68
2020/12/27 11:03:11;;;;;;;27.48;26.67;;;5.90;11.60;;;;;;5051769;28;20228;-68
2020/12/27 11:05:39;;;;;;;31.05;30.15;;;5.80;8.80;;;;;;5053605;28;20185;-69
2020/12/27 11:08:05;;;;;;;28.02;27.23;;;5.80;12.00;;;;;;5053497;28;20182;-68
2020/12/27 11:10:31;;;;;;;32.08;31.13;;;5.80;11.90;;;;;;5054166;28;20598;-70
2020/12/27 11:12:56;;;;;;;24.60;23.80;;;5.70;10.70;;;;;;5060857;28;20209;-69
2020/12/27 11:15:22;;;;;;;28.00;27.03;;;5.60;8.50;;;;;;5070408;28;20177;-69
2020/12/27 11:17:48;;;;;;;31.10;30.20;;;5.50;8.30;;;;;;5071897;28;20193;-69
2020/12/27 11:20:13;;;;;;;22.63;21.93;;;5.50;9.00;;;;;;5073294;28;20201;-69
2020/12/27 11:22:42;;;;;;;26.27;24.73;;;5.50;9.20;;;;;;5073141;28;20173;-68
2020/12/27 11:25:09;;;;;;;25.00;24.02;;;5.50;10.40;;;;;;5072101;28;20256;-68
2020/12/27 11:27:35;;;;;;;21.83;21.10;;;5.40;9.40;;;;;;5069887;28;20596;-68
2020/12/27 11:30:01;;;;;;;28.13;27.03;;;5.40;10.40;;;;;;5063026;28;20204;-68
2020/12/27 11:32:28;;;;;;;22.50;21.80;;;5.30;9.20;;;;;;5053704;28;20185;-68
2020/12/27 11:34:57;;;;;;;17.77;17.08;;;5.30;11.50;;;;;;5072848;28;20185;-69
2020/12/27 11:37:22;;;;;;;16.20;15.40;;;5.20;11.70;;;;;;5072499;28;20201;-68
2020/12/27 11:39:48;;;;;;;23.97;23.03;;;5.20;12.00;;;;;;5071521;28;20216;-68
2020/12/27 11:42:14;;;;;;;28.53;27.73;;;5.10;11.20;;;;;;5071733;28;20643;-68
2020/12/27 11:44:39;;;;;;;23.77;22.97;;;5.10;11.80;;;;;;5072629;28;20248;-67
2020/12/27 11:47:06;;;;;;;26.37;25.37;;;5.00;9.80;;;;;;5072703;28;20215;-67
2020/12/27 11:49:32;;;;;;;20.88;20.13;;;5.00;9.70;;;;;;5072663;28;20177;-67
2020/12/27 11:51:58;;;;;;;21.48;20.67;;;5.00;9.70;;;;;;5072685;28;20169;-67
2020/12/27 11:54:24;;;;;;;25.17;24.37;;;5.00;10.80;;;;;;5072432;28;20256;-67
2020/12/27 11:56:56;;;;;;;24.97;24.17;;;4.90;8.50;;;;;;5070268;28;20430;-68
2020/12/27 11:59:22;;;;;;;24.27;23.48;;;4.80;8.30;;;;;;5072005;28;20201;-68
2020/12/27 12:01:48;;;;;;;22.08;21.38;;;4.80;7.60;;;;;;5072450;28;20264;-68
2020/12/27 12:04:14;;;;;;;19.27;18.47;;;4.70;6.70;;;;;;5072294;28;20244;-68
2020/12/27 12:06:40;;;;;;;22.00;21.30;;;4.70;6.80;;;;;;5072257;28;20169;-68
2020/12/27 12:09:05;;;;;;;29.87;28.97;;;4.60;3.60;;;;;;5072255;28;20173;-67
2020/12/27 12:11:35;;;;;;;32.90;31.80;;;4.50;2.00;;;;;;5072142;28;20268;-68
2020/12/27 12:14:00;;;;;;;29.63;28.63;;;4.40;4.10;;;;;;5072039;28;20180;-68
2020/12/27 12:16:27;;;;;;;31.37;30.17;;;4.50;7.70;;;;;;5072165;28;20535;-68
2020/12/27 12:18:53;;;;;;;30.17;28.90;;;4.40;11.40;;;;;;5072087;28;20201;-68
2020/12/27 12:21:19;;;;;;;23.67;22.63;;;4.40;8.30;;;;;;5071899;28;20710;-68
2020/12/27 12:23:44;;;;;;;23.17;22.37;;;4.40;10.10;;;;;;5071129;28;20203;-68
2020/12/27 12:26:11;;;;;;;20.00;19.30;;;4.30;8.20;;;;;;5071922;28;20180;-68
2020/12/27 12:28:36;;;;;;;20.23;19.17;;;4.30;10.10;;;;;;5071827;28;20199;-69
2020/12/27 12:31:02;;;;;;;20.37;19.57;;;4.30;10.90;;;;;;5071945;28;20177;-68
2020/12/27 12:33:27;;;;;;;19.63;18.83;;;4.30;12.30;;;;;;5071752;28;20165;-68
2020/12/27 12:35:53;;;;;;;20.90;20.00;;;4.30;12.10;;;;;;5071786;28;20240;-68
2020/12/27 12:38:18;;;;;;;20.20;19.60;;;4.20;12.50;;;;;;5071676;28;20682;-68
2020/12/27 12:40:44;;;;;;;20.53;19.83;;;4.30;13.60;;;;;;5071595;28;20205;-68
2020/12/27 12:43:09;;;;;;;17.17;16.57;;;4.30;13.50;;;;;;5071609;28;20173;-68
2020/12/27 12:45:35;;;;;;;19.20;18.60;;;4.20;12.20;;;;;;5071604;28;20179;-68
2020/12/27 12:48:01;;;;;;;25.80;24.90;;;4.20;12.40;;;;;;5071567;28;20213;-68
2020/12/27 12:50:27;;;;;;;22.27;21.17;;;4.10;11.50;;;;;;5071574;28;20640;-68